Time;durP1;ratioP1;P1;durP2;ratioP2;P2;SDS_P1;SDS_P2;PMS_P1;PMS_P2;Temp;Humidity;BMP_temperature;BMP_pressure;BME280_temperature;BME280_humidity;BME280_pressure;Samples;Min_cycle;Max_cycle;Signal;HPM_P1;HPM_P2
2023/05/19 00:01:28;;;;;;;2.67;1.42;;;;;;;;;;8302284;28;20649;-60
2023/05/19 00:05:29;;;;;;;8.30;2.00;;;;;;;;;;8301655;28;20025;-59
2023/05/19 00:09:30;;;;;;;3.30;1.35;;;;;;;;;;8300600;28;20259;-60
2023/05/19 00:13:30;;;;;;;3.42;1.42;;;;;;;;;;8302232;28;20035;-60
2023/05/19 00:17:33;;;;;;;5.38;1.40;;;;;;;;;;8298857;28;20952;-59
2023/05/19 00:21:33;;;;;;;5.63;1.77;;;;;;;;;;8301920;28;20028;-59
2023/05/19 00:25:33;;;;;;;2.83;1.30;;;;;;;;;;8301132;28;20853;-59
2023/05/19 00:29:33;;;;;;;2.65;1.50;;;;;;;;;;8301630;28;20026;-59
2023/05/19 00:33:33;;;;;;;2.43;1.50;;;;;;;;;;8298424;28;20151;-59
2023/05/19 00:37:34;;;;;;;4.50;1.73;;;;;;;;;;8300432;28;20972;-58
2023/05/19 00:41:34;;;;;;;3.20;1.50;;;;;;;;;;8299601;28;20057;-59
2023/05/19 00:45:34;;;;;;;4.38;1.85;;;;;;;;;;8300230;28;20033;-59
2023/05/19 00:49:34;;;;;;;4.43;1.90;;;;;;;;;;8300147;28;20127;-59
2023/05/19 00:53:35;;;;;;;2.47;1.63;;;;;;;;;;8300057;28;20256;-59
2023/05/19 00:57:35;;;;;;;4.40;1.85;;;;;;;;;;8297050;28;20510;-60
2023/05/19 01:01:35;;;;;;;4.32;1.35;;;;;;;;;;8299887;28;20040;-59
2023/05/19 01:05:40;;;;;;;2.63;1.60;;;;;;;;;;8300404;28;20704;-60
2023/05/19 01:09:40;;;;;;;5.95;1.70;;;;;;;;;;8298145;28;20185;-59
2023/05/19 01:13:41;;;;;;;2.58;1.38;;;;;;;;;;8300224;28;20100;-59
2023/05/19 01:17:48;;;;;;;2.77;1.40;;;;;;;;;;8298709;28;20029;-59
2023/05/19 01:22:01;;;;;;;5.07;1.70;;;;;;;;;;8297982;28;20745;-59
2023/05/19 01:26:17;;;;;;;4.10;1.60;;;;;;;;;;8299088;28;20025;-60
2023/05/19 01:30:24;;;;;;;6.75;1.95;;;;;;;;;;8298153;28;20029;-60
2023/05/19 01:34:25;;;;;;;6.68;1.83;;;;;;;;;;8296445;28;20017;-60
2023/05/19 01:38:27;;;;;;;2.92;1.50;;;;;;;;;;8297976;28;20577;-59
2023/05/19 01:42:28;;;;;;;3.30;1.48;;;;;;;;;;8297607;28;20043;-60
2023/05/19 01:46:28;;;;;;;2.97;1.40;;;;;;;;;;8300379;28;20034;-59
2023/05/19 01:50:29;;;;;;;4.00;1.48;;;;;;;;;;8297134;28;20021;-60
2023/05/19 01:54:29;;;;;;;4.35;2.03;;;;;;;;;;8299172;28;20026;-59
2023/05/19 01:58:37;;;;;;;3.55;1.55;;;;;;;;;;8297352;28;20111;-59
2023/05/19 02:02:56;;;;;;;5.15;1.50;;;;;;;;;;8295980;28;20538;-60
2023/05/19 02:07:07;;;;;;;5.18;1.70;;;;;;;;;;8297075;28;20025;-59
2023/05/19 02:11:15;;;;;;;3.08;1.50;;;;;;;;;;8297600;28;20032;-59
2023/05/19 02:15:16;;;;;;;2.45;1.40;;;;;;;;;;8297905;28;20029;-59
2023/05/19 02:19:20;;;;;;;3.50;1.55;;;;;;;;;;8296965;28;20043;-59
2023/05/19 02:23:21;;;;;;;3.67;1.35;;;;;;;;;;8307660;28;20128;-59
2023/05/19 02:27:21;;;;;;;3.40;1.40;;;;;;;;;;8305082;28;20052;-60
2023/05/19 02:31:21;;;;;;;6.95;1.50;;;;;;;;;;8302583;28;20825;-60
2023/05/19 02:35:21;;;;;;;5.93;1.73;;;;;;;;;;8304246;28;20063;-60
2023/05/19 02:39:21;;;;;;;4.85;1.65;;;;;;;;;;8303282;28;20061;-59
2023/05/19 02:43:22;;;;;;;6.85;1.80;;;;;;;;;;8304472;28;20040;-59
2023/05/19 02:47:22;;;;;;;4.53;1.80;;;;;;;;;;8302456;28;20029;-60
2023/05/19 02:51:22;;;;;;;3.95;1.85;;;;;;;;;;8303044;28;20051;-60
2023/05/19 02:55:22;;;;;;;2.97;1.48;;;;;;;;;;8303560;28;20021;-60
2023/05/19 02:59:23;;;;;;;3.70;1.40;;;;;;;;;;8303409;28;20029;-59
2023/05/19 03:03:23;;;;;;;4.15;1.42;;;;;;;;;;8300955;28;20661;-59
2023/05/19 03:07:23;;;;;;;5.07;1.50;;;;;;;;;;8304479;28;20029;-59
2023/05/19 03:11:25;;;;;;;6.10;1.52;;;;;;;;;;8300571;28;20496;-59
2023/05/19 03:15:25;;;;;;;3.67;1.50;;;;;;;;;;8303943;28;20151;-59
2023/05/19 03:19:25;;;;;;;3.03;1.50;;;;;;;;;;8302399;28;20655;-59
2023/05/19 03:23:26;;;;;;;3.58;1.55;;;;;;;;;;8300534;28;20024;-59
2023/05/19 03:27:26;;;;;;;6.03;1.40;;;;;;;;;;8301559;28;20037;-60
2023/05/19 03:31:27;;;;;;;7.27;2.00;;;;;;;;;;8301787;28;20287;-60
2023/05/19 03:35:27;;;;;;;5.68;1.70;;;;;;;;;;8300268;28;20367;-59
2023/05/19 03:39:27;;;;;;;5.15;1.50;;;;;;;;;;8301678;28;20025;-59
2023/05/19 03:43:27;;;;;;;4.15;1.63;;;;;;;;;;8299326;28;20025;-59
2023/05/19 03:47:28;;;;;;;3.35;1.40;;;;;;;;;;8295882;28;20041;-60
2023/05/19 03:51:28;;;;;;;5.75;1.45;;;;;;;;;;8301377;28;20037;-60
2023/05/19 03:55:29;;;;;;;4.32;1.50;;;;;;;;;;8300090;28;20257;-60
2023/05/19 03:59:30;;;;;;;4.18;1.58;;;;;;;;;;8301798;28;20048;-59
2023/05/19 04:03:30;;;;;;;2.85;1.40;;;;;;;;;;8300781;28;20118;-60
2023/05/19 04:07:30;;;;;;;7.88;1.52;;;;;;;;;;8302065;28;22116;-60
2023/05/19 04:11:30;;;;;;;4.37;1.40;;;;;;;;;;8300939;28;20445;-60
2023/05/19 04:15:30;;;;;;;2.35;1.23;;;;;;;;;;8300692;28;20115;-60
2023/05/19 04:19:31;;;;;;;2.83;1.50;;;;;;;;;;8298814;28;20049;-59
2023/05/19 04:23:31;;;;;;;3.72;1.52;;;;;;;;;;8299611;28;20231;-60
2023/05/19 04:27:35;;;;;;;3.90;1.50;;;;;;;;;;8300897;28;20547;-60
2023/05/19 04:31:35;;;;;;;3.47;1.60;;;;;;;;;;8296953;28;20137;-60
2023/05/19 04:35:36;;;;;;;5.80;1.30;;;;;;;;;;8300389;28;20053;-61
2023/05/19 04:39:42;;;;;;;5.32;1.50;;;;;;;;;;8300666;28;20595;-60
2023/05/19 04:43:43;;;;;;;3.92;1.30;;;;;;;;;;8299340;28;20032;-60
2023/05/19 04:47:45;;;;;;;6.35;1.67;;;;;;;;;;8297495;28;20045;-60
2023/05/19 04:51:48;;;;;;;7.55;1.50;;;;;;;;;;8297548;28;20095;-60
2023/05/19 04:55:49;;;;;;;6.27;1.57;;;;;;;;;;8299691;28;20148;-60
2023/05/19 04:59:49;;;;;;;9.45;1.77;;;;;;;;;;8298780;28;20485;-59
2023/05/19 05:03:49;;;;;;;7.40;1.17;;;;;;;;;;8299423;28;20037;-60
2023/05/19 05:07:49;;;;;;;2.28;1.20;;;;;;;;;;8302673;28;20052;-60
2023/05/19 05:11:50;;;;;;;3.90;1.30;;;;;;;;;;8296738;28;20028;-60
2023/05/19 05:15:53;;;;;;;3.72;1.50;;;;;;;;;;8299920;28;20198;-60
2023/05/19 05:19:53;;;;;;;2.97;1.48;;;;;;;;;;8296402;28;20194;-60
2023/05/19 05:23:54;;;;;;;7.03;1.58;;;;;;;;;;8298647;28;20162;-60
2023/05/19 05:27:54;;;;;;;3.42;1.38;;;;;;;;;;8298123;28;20022;-60
2023/05/19 05:31:54;;;;;;;2.03;1.35;;;;;;;;;;8297842;28;20037;-60
2023/05/19 05:35:54;;;;;;;4.43;1.40;;;;;;;;;;8298781;28;20035;-61
2023/05/19 05:39:55;;;;;;;7.22;1.88;;;;;;;;;;8295903;28;20373;-60
2023/05/19 05:43:55;;;;;;;5.03;1.50;;;;;;;;;;8296223;28;20030;-60
2023/05/19 05:47:55;;;;;;;4.03;1.30;;;;;;;;;;8294817;28;20262;-60
2023/05/19 05:51:56;;;;;;;3.97;1.63;;;;;;;;;;8290219;28;20053;-59
2023/05/19 05:55:56;;;;;;;5.45;1.73;;;;;;;;;;8293261;28;20033;-59
2023/05/19 05:59:57;;;;;;;5.80;1.40;;;;;;;;;;8297890;28;20473;-59
2023/05/19 06:03:57;;;;;;;2.58;1.38;;;;;;;;;;8298792;28;20036;-59
2023/05/19 06:07:57;;;;;;;4.72;1.60;;;;;;;;;;8297927;28;20021;-60
2023/05/19 06:11:58;;;;;;;3.58;1.50;;;;;;;;;;8296519;28;20134;-59
2023/05/19 06:15:59;;;;;;;3.80;1.52;;;;;;;;;;8298397;28;20068;-61
2023/05/19 06:19:59;;;;;;;4.55;1.38;;;;;;;;;;8297761;28;20083;-59
2023/05/19 06:23:59;;;;;;;4.97;1.80;;;;;;;;;;8300914;28;20070;-60
2023/05/19 06:28:00;;;;;;;3.57;1.73;;;;;;;;;;8296584;28;20021;-59
2023/05/19 06:32:00;;;;;;;4.07;1.58;;;;;;;;;;8297298;28;20433;-59
2023/05/19 06:36:00;;;;;;;10.65;1.90;;;;;;;;;;8298960;28;20860;-59
2023/05/19 06:40:00;;;;;;;4.35;1.58;;;;;;;;;;8297519;28;20017;-59
2023/05/19 06:44:02;;;;;;;3.43;1.53;;;;;;;;;;8297844;28;20041;-59
2023/05/19 06:48:02;;;;;;;3.38;1.60;;;;;;;;;;8296343;28;20037;-59
2023/05/19 06:52:03;;;;;;;5.67;1.97;;;;;;;;;;8296949;28;20540;-59
2023/05/19 06:56:03;;;;;;;4.43;1.92;;;;;;;;;;8296525;28;20922;-59
2023/05/19 07:00:05;;;;;;;5.00;1.70;;;;;;;;;;8295070;28;20034;-58
2023/05/19 07:04:05;;;;;;;3.10;1.50;;;;;;;;;;8294320;28;20095;-59
2023/05/19 07:08:07;;;;;;;7.10;1.63;;;;;;;;;;8297589;28;20095;-59
2023/05/19 07:12:07;;;;;;;6.40;1.80;;;;;;;;;;8293859;28;20884;-60
2023/05/19 07:16:07;;;;;;;4.25;1.63;;;;;;;;;;8297373;28;20033;-59
2023/05/19 07:20:10;;;;;;;5.95;1.85;;;;;;;;;;8297350;28;20100;-59
2023/05/19 07:24:11;;;;;;;10.25;1.95;;;;;;;;;;8300191;28;20108;-61
2023/05/19 07:28:11;;;;;;;4.70;1.80;;;;;;;;;;8296754;28;20057;-59
2023/05/19 07:32:11;;;;;;;6.25;1.80;;;;;;;;;;8298358;28;20390;-60
2023/05/19 07:36:11;;;;;;;6.63;1.80;;;;;;;;;;8297271;28;20029;-60
2023/05/19 07:40:12;;;;;;;4.07;2.03;;;;;;;;;;8296244;28;20041;-60
2023/05/19 07:44:12;;;;;;;4.63;1.92;;;;;;;;;;8297983;28;20029;-60
2023/05/19 07:48:12;;;;;;;4.22;1.73;;;;;;;;;;8294502;28;20060;-60
2023/05/19 07:52:12;;;;;;;2.97;1.60;;;;;;;;;;8294709;28;20037;-60
2023/05/19 07:56:13;;;;;;;5.20;1.80;;;;;;;;;;8296121;28;20291;-60
2023/05/19 08:00:13;;;;;;;4.43;1.88;;;;;;;;;;8292655;28;20033;-60
2023/05/19 08:04:13;;;;;;;5.15;1.90;;;;;;;;;;8296747;28;20095;-60
2023/05/19 08:08:15;;;;;;;5.72;1.90;;;;;;;;;;8293038;28;20072;-60
2023/05/19 08:12:15;;;;;;;5.13;1.92;;;;;;;;;;8296962;28;20028;-60
2023/05/19 08:16:15;;;;;;;5.53;2.00;;;;;;;;;;8292608;28;20033;-60
2023/05/19 08:20:16;;;;;;;3.85;1.50;;;;;;;;;;8292657;28;20059;-60
2023/05/19 08:24:16;;;;;;;4.07;1.65;;;;;;;;;;8295313;28;20017;-60
2023/05/19 08:28:16;;;;;;;5.27;2.10;;;;;;;;;;8294579;28;20060;-60
2023/05/19 08:32:16;;;;;;;4.18;1.60;;;;;;;;;;8296709;28;20048;-60
2023/05/19 08:36:17;;;;;;;4.95;1.80;;;;;;;;;;8296104;28;20993;-60
2023/05/19 08:40:17;;;;;;;4.07;1.75;;;;;;;;;;8293650;28;20029;-60
2023/05/19 08:44:18;;;;;;;4.85;1.60;;;;;;;;;;8292959;28;20029;-60
2023/05/19 08:48:19;;;;;;;6.32;1.95;;;;;;;;;;8293195;28;20049;-60
2023/05/19 08:52:39;;;;;;;4.50;1.70;;;;;;;;;;8290010;28;20512;-60
2023/05/19 08:56:41;;;;;;;3.90;1.70;;;;;;;;;;8292724;28;21132;-60
2023/05/19 09:00:42;;;;;;;4.97;1.92;;;;;;;;;;8295106;28;20041;-60
2023/05/19 09:04:44;;;;;;;3.55;1.60;;;;;;;;;;8295434;28;20127;-60
2023/05/19 09:08:45;;;;;;;5.53;1.80;;;;;;;;;;8295599;28;20266;-61
2023/05/19 09:12:46;;;;;;;6.80;2.05;;;;;;;;;;8294568;28;20189;-61
2023/05/19 09:16:49;;;;;;;4.60;1.75;;;;;;;;;;8293961;28;20130;-60
2023/05/19 09:20:49;;;;;;;4.90;1.67;;;;;;;;;;8290403;28;20405;-60
2023/05/19 09:24:50;;;;;;;3.35;1.65;;;;;;;;;;8295791;28;20108;-60
2023/05/19 09:28:50;;;;;;;4.75;1.92;;;;;;;;;;8294486;28;20033;-60
2023/05/19 09:32:50;;;;;;;5.30;1.55;;;;;;;;;;8301683;28;20052;-60
2023/05/19 09:36:52;;;;;;;5.27;2.20;;;;;;;;;;8308025;28;20029;-60
2023/05/19 09:40:55;;;;;;;4.15;1.80;;;;;;;;;;8304432;28;20020;-61
2023/05/19 09:45:01;;;;;;;5.88;1.80;;;;;;;;;;8302462;28;20524;-61
2023/05/19 09:49:08;;;;;;;4.57;1.75;;;;;;;;;;8303849;28;20041;-60
2023/05/19 09:53:11;;;;;;;4.28;1.92;;;;;;;;;;8306087;28;20041;-60
2023/05/19 09:57:11;;;;;;;;;;;;;;;;;;8302878;28;20843;-60
2023/05/19 10:01:11;;;;;;;5.15;1.85;;;;;;;;;;8300565;28;20003;-60
2023/05/19 10:05:16;;;;;;;4.57;1.70;;;;;;;;;;8299941;28;20124;-60
2023/05/19 10:09:16;;;;;;;5.72;1.80;;;;;;;;;;8299566;28;20064;-61
2023/05/19 10:13:17;;;;;;;5.53;1.80;;;;;;;;;;8299431;28;20029;-61
2023/05/19 10:17:17;;;;;;;4.57;1.83;;;;;;;;;;8295095;28;20500;-61
2023/05/19 10:21:17;;;;;;;5.03;1.55;;;;;;;;;;8296720;28;20976;-60
2023/05/19 10:25:18;;;;;;;3.78;1.63;;;;;;;;;;8294797;28;20980;-60
2023/05/19 10:29:21;;;;;;;5.40;1.65;;;;;;;;;;8296649;28;20199;-60
2023/05/19 10:33:27;;;;;;;5.80;1.90;;;;;;;;;;8295778;28;20348;-60
2023/05/19 10:37:27;;;;;;;4.10;1.48;;;;;;;;;;8298077;28;20674;-60
2023/05/19 10:41:36;;;;;;;6.57;1.80;;;;;;;;;;8296375;28;20025;-60
2023/05/19 10:45:55;;;;;;;4.20;1.65;;;;;;;;;;8298171;28;20053;-60
2023/05/19 10:49:58;;;;;;;4.38;1.80;;;;;;;;;;8295184;28;20021;-60
2023/05/19 10:54:02;;;;;;;4.43;1.60;;;;;;;;;;8297389;28;20051;-60
2023/05/19 10:58:03;;;;;;;4.15;1.77;;;;;;;;;;8295537;28;20072;-60
2023/05/19 11:02:04;;;;;;;5.37;1.60;;;;;;;;;;8297850;28;20033;-61
2023/05/19 11:06:22;;;;;;;7.60;2.00;;;;;;;;;;8297402;28;20040;-61
2023/05/19 11:10:23;;;;;;;3.40;1.58;;;;;;;;;;8295923;28;20215;-60
2023/05/19 11:14:26;;;;;;;5.15;1.70;;;;;;;;;;8312597;28;20144;-60
2023/05/19 11:18:30;;;;;;;3.80;1.70;;;;;;;;;;8296331;28;20037;-61
2023/05/19 11:22:32;;;;;;;4.65;1.60;;;;;;;;;;8297279;28;20037;-61
2023/05/19 11:26:40;;;;;;;4.00;1.60;;;;;;;;;;8297478;28;20079;-60
2023/05/19 11:30:45;;;;;;;4.80;1.70;;;;;;;;;;8298172;28;20052;-60
2023/05/19 11:34:47;;;;;;;5.93;1.67;;;;;;;;;;8297599;28;20095;-61
2023/05/19 11:38:47;;;;;;;9.43;1.90;;;;;;;;;;8296815;28;20033;-60
2023/05/19 11:42:48;;;;;;;3.85;1.80;;;;;;;;;;8296427;28;20287;-60
2023/05/19 11:46:48;;;;;;;5.13;1.70;;;;;;;;;;8296362;28;20056;-60
2023/05/19 11:50:48;;;;;;;4.90;1.60;;;;;;;;;;8298907;28;20140;-60
2023/05/19 11:54:48;;;;;;;2.60;1.50;;;;;;;;;;8297285;28;20025;-60
2023/05/19 11:58:51;;;;;;;2.63;1.50;;;;;;;;;;8292846;28;20513;-60
2023/05/19 12:02:52;;;;;;;5.47;2.10;;;;;;;;;;8292292;28;20038;-60
2023/05/19 12:06:53;;;;;;;3.30;1.60;;;;;;;;;;8292163;28;20025;-60
2023/05/19 12:10:53;;;;;;;6.95;1.70;;;;;;;;;;8291123;28;20039;-60
2023/05/19 12:14:53;;;;;;;4.35;1.60;;;;;;;;;;8293814;28;20030;-60
2023/05/19 12:18:54;;;;;;;2.67;1.60;;;;;;;;;;8292548;28;20095;-60
2023/05/19 12:22:54;;;;;;;4.70;1.65;;;;;;;;;;8293773;28;20061;-60
2023/05/19 12:27:16;;;;;;;5.65;1.30;;;;;;;;;;8293513;28;20380;-60
2023/05/19 12:31:17;;;;;;;3.20;1.58;;;;;;;;;;8295411;28;20037;-60
2023/05/19 12:35:18;;;;;;;4.38;1.48;;;;;;;;;;8293922;28;20579;-59
2023/05/19 12:39:18;;;;;;;4.72;1.83;;;;;;;;;;8293254;28;20157;-60
2023/05/19 12:43:19;;;;;;;3.65;1.50;;;;;;;;;;8297205;28;20501;-60
2023/05/19 12:47:21;;;;;;;4.15;1.40;;;;;;;;;;8293066;28;20037;-60
2023/05/19 12:51:21;;;;;;;2.55;1.33;;;;;;;;;;8291828;28;20052;-60
2023/05/19 12:55:22;;;;;;;4.78;1.48;;;;;;;;;;8293027;28;20030;-60
2023/05/19 12:59:22;;;;;;;4.88;1.70;;;;;;;;;;8291271;28;20500;-64
2023/05/19 13:03:23;;;;;;;2.13;1.48;;;;;;;;;;8290630;28;20045;-61
2023/05/19 13:07:23;;;;;;;2.17;1.23;;;;;;;;;;8291536;28;20029;-61
2023/05/19 13:11:23;;;;;;;3.58;1.67;;;;;;;;;;8294276;28;20140;-60
2023/05/19 13:15:25;;;;;;;3.17;1.80;;;;;;;;;;8290093;28;20048;-60
2023/05/19 13:19:25;;;;;;;3.58;1.50;;;;;;;;;;8288676;28;20284;-60
2023/05/19 13:23:25;;;;;;;3.58;1.38;;;;;;;;;;8291917;28;20029;-61
2023/05/19 13:27:26;;;;;;;5.22;1.60;;;;;;;;;;8293163;28;20079;-60
2023/05/19 13:31:26;;;;;;;4.32;1.60;;;;;;;;;;8291023;28;20038;-60
2023/05/19 13:35:26;;;;;;;5.82;1.33;;;;;;;;;;8291980;28;20033;-60
2023/05/19 13:39:26;;;;;;;3.67;1.67;;;;;;;;;;8290112;28;20562;-60
2023/05/19 13:43:26;;;;;;;3.10;1.40;;;;;;;;;;8285354;28;20276;-59
2023/05/19 13:47:27;;;;;;;3.65;1.63;;;;;;;;;;8281946;28;20053;-60
2023/05/19 13:51:27;;;;;;;4.35;1.48;;;;;;;;;;8282572;28;20057;-60
2023/05/19 13:55:27;;;;;;;3.90;1.50;;;;;;;;;;8292710;28;20021;-61
2023/05/19 13:59:28;;;;;;;2.30;1.53;;;;;;;;;;8285162;28;20044;-53
2023/05/19 14:03:29;;;;;;;5.15;1.55;;;;;;;;;;8286009;28;20056;-61
2023/05/19 14:07:29;;;;;;;3.28;1.50;;;;;;;;;;8287407;28;20476;-62
2023/05/19 14:11:29;;;;;;;4.00;1.70;;;;;;;;;;8286617;28;21587;-53
2023/05/19 14:15:33;;;;;;;3.88;1.42;;;;;;;;;;8284799;28;20044;-62
2023/05/19 14:19:33;;;;;;;2.28;1.50;;;;;;;;;;8288423;28;20447;-61
2023/05/19 14:23:33;;;;;;;5.23;1.70;;;;;;;;;;8294505;28;20064;-52
2023/05/19 14:27:34;;;;;;;3.23;1.80;;;;;;;;;;8295030;28;20112;-61
2023/05/19 14:31:34;;;;;;;4.87;1.50;;;;;;;;;;8288801;28;20037;-60
2023/05/19 14:35:34;;;;;;;3.75;1.67;;;;;;;;;;8282548;28;20028;-60
2023/05/19 14:39:34;;;;;;;3.00;1.40;;;;;;;;;;8290922;28;20095;-61
2023/05/19 14:43:34;;;;;;;7.40;1.60;;;;;;;;;;8294231;28;20021;-60
2023/05/19 14:47:35;;;;;;;3.28;1.35;;;;;;;;;;8288923;28;20033;-61
2023/05/19 14:51:35;;;;;;;1.98;1.30;;;;;;;;;;8294067;28;20218;-51
2023/05/19 14:55:35;;;;;;;3.88;1.50;;;;;;;;;;8295064;28;20021;-58
2023/05/19 14:59:36;;;;;;;3.53;1.33;;;;;;;;;;8292699;28;20029;-60
2023/05/19 15:03:36;;;;;;;12.63;1.73;;;;;;;;;;8301686;28;20734;-61
2023/05/19 15:07:36;;;;;;;4.43;1.65;;;;;;;;;;8314266;28;20025;-60
2023/05/19 15:11:37;;;;;;;3.83;1.50;;;;;;;;;;8311049;28;20032;-61
2023/05/19 15:15:38;;;;;;;8.93;1.60;;;;;;;;;;8310590;28;20060;-61
2023/05/19 15:19:40;;;;;;;2.72;1.30;;;;;;;;;;8290580;28;20025;-61
2023/05/19 15:23:40;;;;;;;5.07;1.45;;;;;;;;;;8293577;28;20144;-61
2023/05/19 15:27:41;;;;;;;3.17;1.45;;;;;;;;;;8290414;28;20063;-60
2023/05/19 15:31:41;;;;;;;2.80;1.47;;;;;;;;;;8294720;28;20126;-60
2023/05/19 15:35:41;;;;;;;2.03;1.00;;;;;;;;;;8287679;28;20068;-60
2023/05/19 15:39:41;;;;;;;2.03;1.10;;;;;;;;;;8292074;28;20832;-60
2023/05/19 15:43:44;;;;;;;5.55;1.30;;;;;;;;;;8294530;28;20036;-60
2023/05/19 15:47:45;;;;;;;2.35;1.50;;;;;;;;;;8293124;28;20040;-60
2023/05/19 15:51:45;;;;;;;2.33;1.40;;;;;;;;;;8287827;28;20017;-60
2023/05/19 15:55:45;;;;;;;4.03;1.58;;;;;;;;;;8290392;28;20100;-61
2023/05/19 15:59:46;;;;;;;1.88;1.33;;;;;;;;;;8285535;28;20459;-60
2023/05/19 16:03:46;;;;;;;2.42;1.20;;;;;;;;;;8286323;28;20877;-60
2023/05/19 16:07:46;;;;;;;2.55;1.30;;;;;;;;;;8290842;28;20029;-60
2023/05/19 16:11:46;;;;;;;4.20;1.33;;;;;;;;;;8294386;28;20042;-60
2023/05/19 16:15:47;;;;;;;2.83;1.33;;;;;;;;;;8294323;28;21070;-60
2023/05/19 16:19:47;;;;;;;2.30;1.60;;;;;;;;;;8282584;28;20521;-60
2023/05/19 16:23:47;;;;;;;2.97;1.50;;;;;;;;;;8293282;28;20026;-60
2023/05/19 16:27:48;;;;;;;2.83;1.50;;;;;;;;;;8294417;28;20037;-61
2023/05/19 16:31:48;;;;;;;5.57;1.48;;;;;;;;;;8295828;28;20280;-60
2023/05/19 16:35:48;;;;;;;2.42;1.50;;;;;;;;;;8284115;28;20106;-60
2023/05/19 16:39:48;;;;;;;3.85;1.70;;;;;;;;;;8292370;28;20550;-60
2023/05/19 16:43:49;;;;;;;3.00;1.50;;;;;;;;;;8293286;28;20255;-60
2023/05/19 16:47:49;;;;;;;1.57;1.27;;;;;;;;;;8292013;28;20524;-60
2023/05/19 16:51:51;;;;;;;1.65;1.10;;;;;;;;;;8291346;28;20029;-60
2023/05/19 16:55:51;;;;;;;3.53;1.55;;;;;;;;;;8293518;28;20021;-60
2023/05/19 16:59:52;;;;;;;1.50;1.30;;;;;;;;;;8290467;28;20175;-60
2023/05/19 17:03:54;;;;;;;3.88;1.23;;;;;;;;;;8289889;28;20168;-61
2023/05/19 17:07:54;;;;;;;5.35;1.55;;;;;;;;;;8292304;28;20159;-60
2023/05/19 17:11:54;;;;;;;1.57;1.13;;;;;;;;;;8296793;28;20049;-61
2023/05/19 17:15:55;;;;;;;2.83;1.35;;;;;;;;;;8291739;28;20114;-61
2023/05/19 17:19:55;;;;;;;2.88;1.33;;;;;;;;;;8288698;28;20060;-60
2023/05/19 17:23:56;;;;;;;1.77;1.33;;;;;;;;;;8292331;28;20033;-60
2023/05/19 17:27:56;;;;;;;2.05;1.23;;;;;;;;;;8288953;28;20228;-61
2023/05/19 17:31:56;;;;;;;5.93;1.37;;;;;;;;;;8292115;28;20596;-60
2023/05/19 17:35:56;;;;;;;1.20;1.00;;;;;;;;;;8291834;28;20026;-60
2023/05/19 17:39:56;;;;;;;2.58;1.20;;;;;;;;;;8292492;28;20021;-60
2023/05/19 17:43:57;;;;;;;1.10;1.00;;;;;;;;;;8291434;28;20514;-60
2023/05/19 17:47:57;;;;;;;2.25;1.35;;;;;;;;;;8292068;28;20239;-60
2023/05/19 17:51:58;;;;;;;3.53;1.10;;;;;;;;;;8294549;28;20083;-60
2023/05/19 17:55:59;;;;;;;3.80;1.20;;;;;;;;;;8298656;28;20029;-60
2023/05/19 18:00:01;;;;;;;2.22;1.30;;;;;;;;;;8297088;28;20035;-60
2023/05/19 18:04:02;;;;;;;2.88;1.33;;;;;;;;;;8299317;28;20051;-60
2023/05/19 18:08:05;;;;;;;5.13;1.20;;;;;;;;;;8298636;28;20124;-60
2023/05/19 18:12:06;;;;;;;;;;;;;;;;;;8301171;28;20022;-60
2023/05/19 18:16:06;;;;;;;3.47;1.10;;;;;;;;;;8298576;28;19916;-60
2023/05/19 18:20:06;;;;;;;3.08;1.30;;;;;;;;;;8295786;28;20120;-60
2023/05/19 18:24:07;;;;;;;1.50;1.20;;;;;;;;;;8295353;28;20366;-60
2023/05/19 18:28:07;;;;;;;3.28;1.05;;;;;;;;;;8298412;28;20024;-60
2023/05/19 18:32:07;;;;;;;3.05;1.27;;;;;;;;;;8298906;28;20453;-60
2023/05/19 18:36:08;;;;;;;1.58;1.30;;;;;;;;;;8295768;28;20056;-60
2023/05/19 18:40:09;;;;;;;1.60;1.50;;;;;;;;;;8297505;28;20485;-59
2023/05/19 18:44:09;;;;;;;2.50;1.30;;;;;;;;;;8299740;28;20114;-60
2023/05/19 18:48:10;;;;;;;1.42;1.27;;;;;;;;;;8294992;28;20038;-60
2023/05/19 18:52:10;;;;;;;2.38;1.27;;;;;;;;;;8296305;28;20033;-59
2023/05/19 18:56:11;;;;;;;3.22;1.30;;;;;;;;;;8297179;28;20485;-59
2023/05/19 19:00:12;;;;;;;1.40;1.30;;;;;;;;;;8295254;28;20065;-60
2023/05/19 19:04:13;;;;;;;1.90;1.40;;;;;;;;;;8295650;28;20091;-59
2023/05/19 19:08:13;;;;;;;2.00;1.35;;;;;;;;;;8297615;28;20037;-59
2023/05/19 19:12:14;;;;;;;1.92;1.40;;;;;;;;;;8295821;28;20030;-60
2023/05/19 19:16:15;;;;;;;6.65;1.98;;;;;;;;;;8297203;28;20041;-59
2023/05/19 19:20:15;;;;;;;4.60;1.60;;;;;;;;;;8292749;28;20755;-60
2023/05/19 19:24:15;;;;;;;1.70;1.30;;;;;;;;;;8293939;28;20384;-59
2023/05/19 19:28:15;;;;;;;3.85;1.60;;;;;;;;;;8296061;28;20556;-59
2023/05/19 19:32:16;;;;;;;3.83;1.80;;;;;;;;;;8296877;28;20239;-59
2023/05/19 19:36:17;;;;;;;3.50;1.90;;;;;;;;;;8292807;28;20232;-59
2023/05/19 19:40:17;;;;;;;2.67;1.70;;;;;;;;;;8295282;28;20029;-59
2023/05/19 19:44:17;;;;;;;3.42;1.70;;;;;;;;;;8295785;28;20024;-59
2023/05/19 19:48:17;;;;;;;2.05;1.38;;;;;;;;;;8285162;28;20610;-59
2023/05/19 19:52:17;;;;;;;3.97;1.67;;;;;;;;;;8291619;28;20512;-59
2023/05/19 19:56:17;;;;;;;2.50;1.60;;;;;;;;;;8289152;28;20029;-59
2023/05/19 20:00:18;;;;;;;7.70;1.80;;;;;;;;;;8287126;28;20092;-60
2023/05/19 20:04:18;;;;;;;1.93;1.57;;;;;;;;;;8293398;28;20128;-60
2023/05/19 20:08:18;;;;;;;3.45;1.60;;;;;;;;;;8295180;28;20029;-59
2023/05/19 20:12:20;;;;;;;4.25;1.40;;;;;;;;;;8296414;28;20025;-59
2023/05/19 20:16:20;;;;;;;4.60;1.40;;;;;;;;;;8291148;28;20053;-59
2023/05/19 20:20:20;;;;;;;2.65;1.55;;;;;;;;;;8290489;28;20718;-59
2023/05/19 20:24:20;;;;;;;3.25;1.40;;;;;;;;;;8287332;28;20444;-59
2023/05/19 20:28:21;;;;;;;4.38;1.58;;;;;;;;;;8283932;28;20103;-58
2023/05/19 20:32:21;;;;;;;5.05;1.40;;;;;;;;;;8291227;28;20029;-59
2023/05/19 20:36:21;;;;;;;2.45;1.50;;;;;;;;;;8291393;28;20021;-59
2023/05/19 20:40:21;;;;;;;1.17;1.08;;;;;;;;;;8287417;28;20029;-58
2023/05/19 20:44:21;;;;;;;3.90;1.30;;;;;;;;;;8289656;28;20434;-59
2023/05/19 20:48:22;;;;;;;3.88;1.13;;;;;;;;;;8283987;28;20072;-59
2023/05/19 20:52:22;;;;;;;1.97;1.63;;;;;;;;;;8291982;28;20025;-58
2023/05/19 20:56:22;;;;;;;1.88;1.13;;;;;;;;;;8290785;28;20737;-59
2023/05/19 21:00:23;;;;;;;2.40;1.30;;;;;;;;;;8285930;28;20080;-59
2023/05/19 21:04:23;;;;;;;2.85;1.48;;;;;;;;;;8285206;28;20221;-58
2023/05/19 21:08:24;;;;;;;1.58;1.20;;;;;;;;;;8281316;28;20059;-58
2023/05/19 21:12:27;;;;;;;1.20;1.10;;;;;;;;;;8293674;28;20029;-59
2023/05/19 21:16:27;;;;;;;3.90;1.48;;;;;;;;;;8296474;28;20163;-60
2023/05/19 21:20:28;;;;;;;4.67;1.40;;;;;;;;;;8292544;28;20049;-60
2023/05/19 21:24:28;;;;;;;3.78;1.20;;;;;;;;;;8299768;28;20049;-59
2023/05/19 21:28:28;;;;;;;2.00;1.10;;;;;;;;;;8297125;28;20402;-59
2023/05/19 21:32:29;;;;;;;4.37;1.50;;;;;;;;;;8294969;28;20156;-59
2023/05/19 21:36:30;;;;;;;2.38;1.45;;;;;;;;;;8292664;28;20029;-59
2023/05/19 21:40:30;;;;;;;1.65;1.25;;;;;;;;;;8299909;28;20815;-59
2023/05/19 21:44:31;;;;;;;1.75;1.15;;;;;;;;;;8292978;28;20067;-60
2023/05/19 21:48:31;;;;;;;2.25;1.35;;;;;;;;;;8292462;28;20044;-59
2023/05/19 21:52:31;;;;;;;1.70;1.30;;;;;;;;;;8292209;28;20112;-59
2023/05/19 21:56:32;;;;;;;3.97;1.30;;;;;;;;;;8294592;28;20035;-59
2023/05/19 22:00:32;;;;;;;2.67;1.48;;;;;;;;;;8297048;28;20037;-58
2023/05/19 22:04:33;;;;;;;2.88;1.60;;;;;;;;;;8294487;28;20032;-59
2023/05/19 22:08:33;;;;;;;3.03;1.50;;;;;;;;;;8294774;28;20031;-60
2023/05/19 22:12:33;;;;;;;3.40;1.30;;;;;;;;;;8292940;28;20485;-59
2023/05/19 22:16:33;;;;;;;6.00;1.40;;;;;;;;;;8297479;28;20042;-59
2023/05/19 22:20:34;;;;;;;4.43;1.30;;;;;;;;;;8294165;28;20033;-60
2023/05/19 22:24:34;;;;;;;4.32;1.50;;;;;;;;;;8296096;28;20028;-59
2023/05/19 22:28:34;;;;;;;1.98;1.48;;;;;;;;;;8290795;28;20144;-58
2023/05/19 22:32:35;;;;;;;4.93;1.30;;;;;;;;;;8295867;28;20041;-59
2023/05/19 22:36:35;;;;;;;5.03;1.50;;;;;;;;;;8293165;28;20021;-59
2023/05/19 22:40:35;;;;;;;1.60;1.50;;;;;;;;;;8298686;28;20325;-59
2023/05/19 22:44:35;;;;;;;2.50;1.37;;;;;;;;;;8294637;28;20033;-59
2023/05/19 22:48:36;;;;;;;3.53;1.60;;;;;;;;;;8295086;28;20461;-60
2023/05/19 22:52:36;;;;;;;2.17;1.30;;;;;;;;;;8301527;28;20034;-59
2023/05/19 22:56:36;;;;;;;3.05;1.60;;;;;;;;;;8301172;28;20029;-59
2023/05/19 23:00:36;;;;;;;2.50;1.40;;;;;;;;;;8298197;28;20036;-59
2023/05/19 23:04:37;;;;;;;2.50;1.50;;;;;;;;;;8299152;28;20087;-59
2023/05/19 23:08:37;;;;;;;2.50;1.70;;;;;;;;;;8298460;28;20025;-59
2023/05/19 23:12:38;;;;;;;2.28;1.50;;;;;;;;;;8301238;28;20611;-59
2023/05/19 23:16:39;;;;;;;4.18;1.63;;;;;;;;;;8297455;28;20501;-58
2023/05/19 23:20:39;;;;;;;3.75;1.60;;;;;;;;;;8297561;28;20021;-59
2023/05/19 23:24:40;;;;;;;3.92;1.52;;;;;;;;;;8300906;28;20021;-58
2023/05/19 23:28:40;;;;;;;4.60;1.60;;;;;;;;;;8295788;28;20018;-58
2023/05/19 23:32:41;;;;;;;3.47;1.63;;;;;;;;;;8297290;28;20076;-59
2023/05/19 23:36:41;;;;;;;2.63;1.50;;;;;;;;;;8299031;28;20872;-60
2023/05/19 23:40:42;;;;;;;6.13;1.80;;;;;;;;;;8296804;28;20028;-58
2023/05/19 23:44:42;;;;;;;2.78;1.70;;;;;;;;;;8297892;28;20104;-60
2023/05/19 23:48:42;;;;;;;1.73;1.42;;;;;;;;;;8297526;28;20107;-59
2023/05/19 23:52:42;;;;;;;3.40;1.70;;;;;;;;;;8301576;28;20025;-58
2023/05/19 23:56:42;;;;;;;2.45;1.40;;;;;;;;;;8301129;28;20057;-59
